x

Buzzards Bay, Ma (buzm3) Weather Station

3:00pm - Mon 25th Sep 2017 All times are EDT. -4 hours from GMT.

  • Wind
    3mph, 3mph gusts
  • 空気 Temp 66°f
  • Sea Pressure 1018.3mb
  • Buzzards Bay, Ma
  • Buzzards Bay, Ma

More Historic Weather Station data

Upgrade to MSW Pro to gain access to the past 30 days of data for over 8000 Wavebouys and Weather Stations around the globe.

Join

Comparision Forecast

View Surf forecast
   
Mon 09/25 3:00pm 3 3 mph 1018.3mb 66f
2:00pm 5 5 mph 1018.6mb 66f
1:00pm  -  1 mph 1019.1mb 65f
12:00pm 11 11 mph 1019mb 64f
11:00am 7 7 mph 1019mb 66f
10:00am 3 5 mph 1019.1mb 66f
9:00am 6 6 mph 1018.9mb 65f
8:00am 5 6 mph 1018.5mb 65f
7:00am 7 8 mph 1018.3mb 65f
6:00am 5 6 mph 1017.8mb 66f
5:00am 3 3 mph 1017.3mb 68f
4:00am 5 5 mph 1017.4mb 67f
3:00am 6 6 mph 1017.4mb 67f
2:00am 8 8 mph 1017.7mb 68f
1:00am 3 3 mph 1017.8mb 67f
12:00am 3 3 mph 1017.7mb 69f
Sun 09/24 11:00pm 2 2 mph 1017.9mb 69f
10:00pm 3 3 mph 1018mb 69f
9:00pm 8 8 mph 1017.7mb 68f
8:00pm 7 7 mph 1017.6mb 68f
7:00pm 5 5 mph 1017mb 68f
6:00pm 7 8 mph 1016.9mb 69f
5:00pm 5 5 mph 1016.9mb 70f
4:00pm 5 6 mph 1017.1mb 70f
3:00pm 6 6 mph 1017.4mb 71f
2:00pm 1 2 mph 1017.8mb 71f
1:00pm 3 3 mph 1017.8mb 71f
12:00pm 7 7 mph 1017.9mb 69f
11:00am 3 3 mph 1018.3mb 67f
10:00am  -  0 mph 1018.3mb 69f
9:00am 5 5 mph 1018.1mb 65f
8:00am 3 3 mph 1018.1mb 65f
7:00am 5 5 mph 1017.8mb 64f
6:00am 7 7 mph 1017.5mb 64f
5:00am 7 8 mph 1017.1mb 63f
4:00am 6 6 mph 1016.9mb 62f
3:00am 6 6 mph 1016.6mb 62f
2:00am 10 11 mph 1016.6mb 61f
1:00am 9 9 mph 1016.9mb 62f
12:00am 9 9 mph 1016.9mb 63f
Sat 09/23 11:00pm 10 10 mph 1017.2mb 63f
10:00pm 11 11 mph 1017.1mb 63f
9:00pm 11 13 mph 1017.2mb 64f
8:00pm 14 15 mph 1016.7mb 64f
7:00pm 15 16 mph 1016mb 65f
6:00pm 17 18 mph 1015.8mb 67f
5:00pm 17 18 mph 1015.5mb 67f
4:00pm 17 18 mph 1015.4mb 67f
3:00pm 18 20 mph 1015.6mb 67f
2:00pm 18 20 mph 1015.5mb 67f
1:00pm 21 22 mph 1015.3mb 65f
12:00pm 22 24 mph 1015.5mb 64f
11:00am 23 25 mph 1015.4mb 63f
10:00am 20 22 mph 1014.9mb 63f
9:00am 21 24 mph 1014.6mb 62f
8:00am 26 29 mph 1013.5mb 62f
7:00am 26 29 mph 1013.4mb 61f
6:00am 26 30 mph 1013.1mb 62f
5:00am 29 31 mph 1012.5mb 62f
4:00am 30 32 mph 1012mb 62f
3:00am 29 31 mph 1011.9mb 62f
2:00am 31 36 mph 1012mb 62f
1:00am 29 32 mph 1012.1mb 62f
12:00am 29 31 mph 1012mb 62f
Fri 09/22 11:00pm 32 37 mph 1011.8mb 62f
10:00pm 32 36 mph 1011.7mb 62f
9:00pm 31 34 mph 1011.9mb 61f
8:00pm 32 36 mph 1011.5mb 61f
7:00pm 36 39 mph 1010.9mb 60f
6:00pm 33 36 mph 1011.1mb 61f
5:00pm 34 38 mph 1011mb 60f
4:00pm 36 39 mph 1010.9mb 60f
3:00pm 37 39 mph 1010.9mb 59f
2:00pm 40 45 mph 1010.7mb 59f
1:00pm 43 46 mph 1011mb 58f
12:00pm 37 41 mph 1011.4mb 59f
11:00am 40 43 mph 1011.4mb 59f
10:00am 37 40 mph 1011.2mb 60f
9:00am 36 41 mph 1011.3mb 60f
8:00am 43 48 mph 1010.4mb 60f
7:00am 43 51 mph 1010.3mb 60f
6:00am 41 47 mph 1010.1mb 59f
5:00am 39 46 mph 1010.2mb 60f
4:00am 39 45 mph 1010.2mb 59f
3:00am 43 48 mph 1010mb 60f
2:00am 45 51 mph 1010.3mb 60f
1:00am 46 52 mph 1010.7mb 60f
12:00am 53 59 mph 1010mb 61f
Thu 09/21 11:00pm 38 43 mph 1011.5mb 65f
10:00pm 44 47 mph 1011.6mb 65f
9:00pm 44 48 mph 1011.7mb 63f